createdAt,value
2022-12-31T00:01:26.867Z,0.70
2022-12-31T00:03:54.133Z,0.70
2022-12-31T00:06:35.331Z,0.80
2022-12-31T00:09:05.251Z,0.70
2022-12-31T00:11:33.763Z,0.70
2022-12-31T00:14:00.700Z,0.80
2022-12-31T00:16:30.298Z,0.70
2022-12-31T00:19:00.237Z,0.77
2022-12-31T00:21:29.376Z,0.80
2022-12-31T00:23:56.960Z,0.70
2022-12-31T00:26:26.437Z,0.80
2022-12-31T00:28:54.706Z,0.70
2022-12-31T00:31:29.488Z,0.70
2022-12-31T00:33:57.442Z,0.80
2022-12-31T00:36:35.980Z,0.73
2022-12-31T00:39:04.863Z,0.60
2022-12-31T00:41:32.692Z,0.73
2022-12-31T00:43:59.884Z,0.73
2022-12-31T00:46:27.281Z,0.80
2022-12-31T00:48:54.850Z,0.80
2022-12-31T00:51:24.152Z,0.70
2022-12-31T00:53:51.169Z,0.70
2022-12-31T00:56:21.102Z,0.70
2022-12-31T00:58:48.139Z,0.70
2022-12-31T01:01:23.603Z,0.70
2022-12-31T01:03:53.675Z,0.70
2022-12-31T01:06:20.869Z,0.73
2022-12-31T01:08:52.099Z,0.60
2022-12-31T01:11:19.605Z,0.70
2022-12-31T01:13:53.004Z,0.70
2022-12-31T01:16:33.161Z,0.63
2022-12-31T01:19:02.404Z,0.70
2022-12-31T01:21:30.020Z,0.70
2022-12-31T01:23:57.820Z,0.73
2022-12-31T01:26:24.638Z,0.70
2022-12-31T01:28:51.524Z,0.70
2022-12-31T01:31:20.113Z,0.73
2022-12-31T01:33:47.343Z,0.60
2022-12-31T01:36:25.324Z,0.77
2022-12-31T01:38:54.268Z,0.70
2022-12-31T01:41:26.839Z,0.70
2022-12-31T01:44:21.368Z,0.70
2022-12-31T01:47:00.607Z,0.80
2022-12-31T01:49:48.921Z,0.70
2022-12-31T01:52:27.223Z,0.70
2022-12-31T01:55:02.698Z,0.70
2022-12-31T01:57:30.935Z,0.80
2022-12-31T02:00:00.502Z,0.70
2022-12-31T02:02:27.512Z,0.97
2022-12-31T02:04:57.213Z,0.80
2022-12-31T02:07:24.432Z,0.70
2022-12-31T02:09:52.292Z,0.70
2022-12-31T02:12:19.368Z,0.70
2022-12-31T02:14:50.392Z,0.80
2022-12-31T02:17:48.340Z,0.77
2022-12-31T02:20:37.047Z,0.80
2022-12-31T02:23:14.314Z,0.80
2022-12-31T02:25:50.280Z,0.60
2022-12-31T02:28:38.975Z,0.70
2022-12-31T02:31:17.476Z,0.70
2022-12-31T02:33:59.898Z,0.80
2022-12-31T02:36:31.181Z,0.60
2022-12-31T02:38:59.485Z,0.63
2022-12-31T02:41:44.995Z,0.70
2022-12-31T02:44:33.654Z,0.73
2022-12-31T02:47:09.427Z,0.70
2022-12-31T02:49:48.463Z,0.70
2022-12-31T02:52:40.668Z,0.60
2022-12-31T02:55:27.725Z,0.60
2022-12-31T02:58:00.289Z,0.60
2022-12-31T03:00:50.028Z,0.63
2022-12-31T03:03:19.311Z,0.70
2022-12-31T03:05:48.742Z,0.60
2022-12-31T03:08:26.164Z,0.77
2022-12-31T03:10:53.039Z,0.70
2022-12-31T03:13:19.839Z,0.80
2022-12-31T03:15:46.638Z,0.70
2022-12-31T03:18:15.827Z,0.60
2022-12-31T03:21:29.525Z,0.70
2022-12-31T03:24:14.696Z,0.70
2022-12-31T03:26:41.480Z,0.70
2022-12-31T03:29:08.292Z,0.70
2022-12-31T03:31:35.138Z,0.73
2022-12-31T03:34:01.957Z,0.77
2022-12-31T03:36:28.730Z,0.70
2022-12-31T03:38:55.592Z,0.70
2022-12-31T03:41:22.368Z,0.67
2022-12-31T03:43:49.195Z,0.87
2022-12-31T03:46:16.000Z,0.70
2022-12-31T03:48:42.811Z,0.70
2022-12-31T03:51:09.628Z,0.70
2022-12-31T03:53:36.415Z,0.70
2022-12-31T03:56:03.294Z,0.60
2022-12-31T03:58:30.099Z,0.60
2022-12-31T04:00:57.165Z,0.70
2022-12-31T04:03:24.175Z,0.70
2022-12-31T04:05:55.411Z,0.60
2022-12-31T04:08:22.287Z,0.70
2022-12-31T04:10:49.166Z,0.60
2022-12-31T04:13:15.992Z,0.77
2022-12-31T04:15:42.803Z,0.70
2022-12-31T04:18:09.643Z,0.70
2022-12-31T04:20:36.434Z,0.70
2022-12-31T04:23:03.408Z,0.80
2022-12-31T04:25:30.225Z,0.70
2022-12-31T04:27:57.031Z,0.70
2022-12-31T04:30:23.861Z,0.70
2022-12-31T04:32:50.633Z,0.70
2022-12-31T04:35:18.223Z,0.70
2022-12-31T04:37:45.028Z,0.67
2022-12-31T04:40:12.104Z,0.70
2022-12-31T04:42:38.923Z,0.60
2022-12-31T04:45:06.316Z,0.60
2022-12-31T04:47:33.205Z,0.70
2022-12-31T04:50:00.040Z,0.70
2022-12-31T04:52:26.851Z,0.60
2022-12-31T04:54:53.676Z,0.70
2022-12-31T04:57:20.514Z,0.70
2022-12-31T04:59:47.396Z,0.60
2022-12-31T05:02:14.387Z,0.80
2022-12-31T05:04:41.370Z,0.60
2022-12-31T05:07:08.420Z,0.80
2022-12-31T05:09:35.238Z,0.80
2022-12-31T05:12:02.081Z,0.80
2022-12-31T05:14:28.844Z,0.67
2022-12-31T05:16:55.878Z,0.70
2022-12-31T05:19:22.707Z,0.70
2022-12-31T05:22:09.491Z,0.70
2022-12-31T05:24:36.384Z,0.70
2022-12-31T05:27:03.511Z,0.70
2022-12-31T05:29:30.299Z,1.03
2022-12-31T05:31:57.125Z,0.70
2022-12-31T05:34:23.949Z,0.70
2022-12-31T05:36:50.765Z,0.90
2022-12-31T05:39:17.679Z,0.70
2022-12-31T05:41:44.470Z,0.70
2022-12-31T05:44:11.401Z,0.80
2022-12-31T05:46:38.347Z,0.70
2022-12-31T05:49:05.133Z,0.70
2022-12-31T05:51:31.981Z,0.80
2022-12-31T05:53:58.810Z,0.70
2022-12-31T05:56:25.651Z,0.70
2022-12-31T05:58:52.596Z,0.73
2022-12-31T06:01:19.534Z,0.80
2022-12-31T06:03:46.693Z,0.70
2022-12-31T06:06:13.905Z,0.70
2022-12-31T06:08:40.712Z,0.80
2022-12-31T06:11:07.658Z,0.63
2022-12-31T06:13:34.464Z,0.73
2022-12-31T06:16:11.662Z,0.70
2022-12-31T06:18:38.485Z,0.70
2022-12-31T06:21:05.626Z,0.70
2022-12-31T06:23:32.440Z,0.70
2022-12-31T06:26:05.496Z,0.70
2022-12-31T06:28:32.503Z,0.77
2022-12-31T06:31:06.446Z,0.70
2022-12-31T06:33:34.368Z,0.70
2022-12-31T06:36:03.941Z,0.70
2022-12-31T06:38:33.117Z,0.70
2022-12-31T06:41:04.438Z,0.90
2022-12-31T06:43:31.266Z,0.67
2022-12-31T06:46:02.174Z,0.80
2022-12-31T06:48:29.026Z,0.60
2022-12-31T06:50:55.934Z,0.70
2022-12-31T06:53:22.882Z,0.80
2022-12-31T06:55:50.467Z,0.70
2022-12-31T06:58:17.758Z,0.70
2022-12-31T07:00:56.359Z,0.70
2022-12-31T07:03:43.885Z,0.70
2022-12-31T07:06:24.625Z,0.80
2022-12-31T07:09:09.534Z,0.70
2022-12-31T07:11:46.732Z,0.80
2022-12-31T07:14:35.105Z,0.73
2022-12-31T07:17:22.974Z,0.70
2022-12-31T07:20:10.433Z,0.60
2022-12-31T07:22:37.493Z,0.70
2022-12-31T07:25:06.607Z,0.70
2022-12-31T07:27:42.955Z,0.60
2022-12-31T07:30:12.573Z,0.67
2022-12-31T07:32:58.965Z,0.80
2022-12-31T07:35:59.641Z,0.80
2022-12-31T07:38:35.602Z,0.80
2022-12-31T07:41:30.024Z,0.80
2022-12-31T07:44:10.138Z,0.80
2022-12-31T07:46:52.115Z,0.80
2022-12-31T07:49:19.098Z,0.70
2022-12-31T07:51:46.203Z,0.80
2022-12-31T07:54:14.425Z,0.90
2022-12-31T07:56:43.024Z,0.77
2022-12-31T07:59:24.465Z,0.90
2022-12-31T08:02:14.475Z,0.87
2022-12-31T08:05:00.698Z,0.80
2022-12-31T08:07:58.678Z,0.83
2022-12-31T08:10:30.775Z,1.00
2022-12-31T08:13:02.933Z,1.07
2022-12-31T08:15:30.812Z,1.23
2022-12-31T08:17:58.066Z,0.97
2022-12-31T08:20:26.442Z,1.27
2022-12-31T08:23:11.251Z,0.90
2022-12-31T08:25:43.930Z,1.03
2022-12-31T08:28:45.812Z,1.20
2022-12-31T08:31:23.382Z,1.03
2022-12-31T08:33:59.342Z,1.00
2022-12-31T08:36:28.856Z,1.00
2022-12-31T08:39:15.776Z,1.00
2022-12-31T08:41:45.798Z,0.90
2022-12-31T08:44:33.445Z,1.10
2022-12-31T08:47:03.343Z,1.00
2022-12-31T08:49:32.748Z,1.00
2022-12-31T08:52:01.024Z,1.00
2022-12-31T08:54:28.603Z,0.83
2022-12-31T08:57:09.289Z,1.00
2022-12-31T09:00:03.862Z,0.90
2022-12-31T09:02:48.701Z,0.90
2022-12-31T09:05:38.415Z,0.87
2022-12-31T09:08:30.516Z,0.87
2022-12-31T09:11:31.119Z,0.90
2022-12-31T09:14:21.337Z,0.90
2022-12-31T09:17:18.804Z,0.70
2022-12-31T09:19:45.738Z,0.90
2022-12-31T09:22:12.693Z,0.90
2022-12-31T09:24:39.733Z,0.90
2022-12-31T09:27:22.492Z,0.80
2022-12-31T09:30:11.004Z,0.90
2022-12-31T09:33:06.454Z,0.90
2022-12-31T09:35:51.515Z,0.87
2022-12-31T09:38:56.176Z,0.80
2022-12-31T09:41:28.885Z,0.90
2022-12-31T09:44:10.726Z,0.90
2022-12-31T09:46:55.927Z,0.80
2022-12-31T09:49:49.703Z,0.73
2022-12-31T09:52:25.716Z,0.77
2022-12-31T09:55:07.610Z,0.80
2022-12-31T09:57:53.351Z,0.80
2022-12-31T10:00:33.723Z,0.70
2022-12-31T10:03:27.944Z,0.77
2022-12-31T10:06:16.109Z,0.80
2022-12-31T10:09:13.266Z,0.80
2022-12-31T10:11:58.322Z,0.80
2022-12-31T10:15:00.702Z,1.43
2022-12-31T10:17:53.831Z,0.87
2022-12-31T10:20:45.142Z,1.10
2022-12-31T10:24:03.391Z,0.90
2022-12-31T10:27:11.198Z,1.27
2022-12-31T10:29:55.043Z,0.90
2022-12-31T10:32:32.230Z,0.80
2022-12-31T10:35:13.546Z,0.87
2022-12-31T10:38:03.591Z,1.00
2022-12-31T10:40:30.370Z,1.10
2022-12-31T10:43:15.664Z,0.83
2022-12-31T10:45:58.231Z,0.80
2022-12-31T10:48:27.814Z,1.10
2022-12-31T10:51:04.420Z,0.90
2022-12-31T10:53:53.120Z,0.80
2022-12-31T10:56:43.329Z,0.90
2022-12-31T10:59:34.912Z,0.70
2022-12-31T11:02:51.463Z,0.80
2022-12-31T11:05:30.198Z,0.80
2022-12-31T11:08:36.575Z,0.80
2022-12-31T11:11:14.245Z,0.90
2022-12-31T11:14:04.365Z,1.03
2022-12-31T11:16:45.952Z,0.70
2022-12-31T11:19:27.636Z,0.83
2022-12-31T11:22:09.781Z,0.70
2022-12-31T11:25:04.274Z,0.70
2022-12-31T11:28:08.416Z,0.90
2022-12-31T11:31:05.286Z,0.70
2022-12-31T11:33:46.808Z,0.80
2022-12-31T11:36:36.581Z,0.77
2022-12-31T11:39:27.326Z,0.87
2022-12-31T11:42:09.741Z,0.70
2022-12-31T11:45:03.793Z,1.07
2022-12-31T11:48:28.627Z,1.00
2022-12-31T11:50:55.771Z,0.83
2022-12-31T11:53:25.778Z,0.90
2022-12-31T11:56:18.404Z,1.00
2022-12-31T11:58:49.505Z,0.83
2022-12-31T12:01:42.845Z,0.80
2022-12-31T12:04:11.415Z,0.83
2022-12-31T12:06:40.489Z,0.80
2022-12-31T12:09:11.740Z,1.00
2022-12-31T12:11:40.046Z,0.83
2022-12-31T12:14:37.244Z,0.80
2022-12-31T12:17:13.466Z,0.80
2022-12-31T12:19:53.729Z,1.00
2022-12-31T12:22:26.241Z,1.10
2022-12-31T12:25:21.041Z,0.87
2022-12-31T12:27:48.480Z,1.10
2022-12-31T12:30:23.523Z,1.30
2022-12-31T12:32:59.282Z,1.10
2022-12-31T12:35:32.384Z,1.20
2022-12-31T12:38:06.350Z,1.13
2022-12-31T12:40:34.692Z,1.47
2022-12-31T12:43:02.744Z,1.20
2022-12-31T12:45:41.307Z,1.40
2022-12-31T12:48:19.027Z,1.10
2022-12-31T12:50:48.652Z,1.30
2022-12-31T12:53:37.421Z,0.90
2022-12-31T12:56:12.385Z,1.00
2022-12-31T12:59:03.410Z,0.90
2022-12-31T13:01:41.132Z,1.00
2022-12-31T13:04:34.571Z,1.10
2022-12-31T13:07:23.159Z,1.00
2022-12-31T13:10:08.967Z,1.30
2022-12-31T13:13:22.652Z,1.10
2022-12-31T13:15:49.654Z,1.20
2022-12-31T13:18:37.479Z,1.30
2022-12-31T13:21:07.041Z,1.10
2022-12-31T13:23:51.644Z,1.10
2022-12-31T13:26:26.247Z,1.10
2022-12-31T13:28:53.386Z,1.00
2022-12-31T13:31:40.971Z,0.97
2022-12-31T13:34:16.167Z,1.00
2022-12-31T13:36:45.771Z,1.30
2022-12-31T13:39:28.903Z,0.70
2022-12-31T13:42:10.293Z,0.77
2022-12-31T13:44:44.048Z,1.13
2022-12-31T13:47:10.814Z,1.03
2022-12-31T13:49:44.103Z,1.20
2022-12-31T13:52:38.749Z,1.20
2022-12-31T13:55:32.205Z,1.07
2022-12-31T13:58:23.631Z,1.30
2022-12-31T14:00:53.149Z,1.40
2022-12-31T14:03:52.228Z,1.00
2022-12-31T14:06:28.657Z,1.10
2022-12-31T14:08:55.616Z,1.40
2022-12-31T14:11:50.473Z,1.20
2022-12-31T14:15:01.876Z,1.10
2022-12-31T14:17:36.550Z,1.50
2022-12-31T14:20:29.592Z,1.10
2022-12-31T14:23:19.890Z,1.20
2022-12-31T14:25:59.654Z,1.30
2022-12-31T14:28:35.621Z,1.40
2022-12-31T14:31:29.809Z,1.30
2022-12-31T14:34:14.283Z,1.50
2022-12-31T14:36:46.527Z,1.47
2022-12-31T14:39:42.658Z,1.50
2022-12-31T14:42:34.300Z,1.60
2022-12-31T14:45:26.140Z,1.60
2022-12-31T14:48:01.187Z,1.40
2022-12-31T14:50:29.884Z,1.43
2022-12-31T14:53:07.367Z,1.30
2022-12-31T14:55:39.146Z,1.40
2022-12-31T14:58:28.062Z,1.53
2022-12-31T15:01:01.295Z,1.90
2022-12-31T15:03:31.240Z,1.90
2022-12-31T15:06:11.419Z,2.47
2022-12-31T15:08:42.969Z,1.97
2022-12-31T15:11:34.761Z,3.10
2022-12-31T15:14:26.533Z,2.47
2022-12-31T15:17:17.482Z,2.17
2022-12-31T15:20:17.530Z,2.90
2022-12-31T15:22:46.379Z,3.27
2022-12-31T15:25:38.435Z,2.50
2022-12-31T15:28:36.730Z,2.73
2022-12-31T15:31:17.452Z,2.73
2022-12-31T15:34:01.941Z,2.90
2022-12-31T15:36:35.531Z,3.00
2022-12-31T15:39:10.242Z,2.70
2022-12-31T15:42:27.638Z,2.53
2022-12-31T15:44:50.297Z,2.70
2022-12-31T15:47:39.792Z,2.57
2022-12-31T15:50:14.743Z,2.67
2022-12-31T15:52:54.688Z,2.67
2022-12-31T15:55:37.802Z,2.90
2022-12-31T15:58:15.786Z,3.20
2022-12-31T16:01:07.811Z,2.80
2022-12-31T16:03:34.957Z,3.53
2022-12-31T16:06:13.803Z,3.43
2022-12-31T16:08:45.209Z,3.23
2022-12-31T16:11:12.539Z,2.70
2022-12-31T16:13:42.833Z,2.83
2022-12-31T16:16:21.695Z,3.13
2022-12-31T16:18:53.192Z,3.30
2022-12-31T16:21:37.302Z,3.53
2022-12-31T16:24:07.198Z,3.23
2022-12-31T16:26:44.727Z,3.57
2022-12-31T16:29:15.294Z,4.30
2022-12-31T16:31:44.573Z,3.93
2022-12-31T16:34:17.938Z,4.30
2022-12-31T16:36:57.885Z,3.80
2022-12-31T16:39:27.936Z,4.23
2022-12-31T16:42:13.478Z,4.40
2022-12-31T16:44:41.153Z,5.17
2022-12-31T16:47:10.117Z,5.97
2022-12-31T16:49:39.684Z,5.50
2022-12-31T16:52:18.217Z,6.10
2022-12-31T16:54:47.724Z,5.87
2022-12-31T16:57:22.641Z,6.87
2022-12-31T16:59:55.109Z,6.93
2022-12-31T17:02:39.354Z,5.87
2022-12-31T17:05:19.172Z,6.33
2022-12-31T17:07:46.082Z,7.07
2022-12-31T17:10:23.094Z,8.10
2022-12-31T17:15:46.024Z,8.50
2022-12-31T17:18:24.451Z,8.93
2022-12-31T17:20:53.675Z,8.90
2022-12-31T17:23:27.987Z,8.73
2022-12-31T17:26:02.381Z,9.00
2022-12-31T17:28:37.337Z,8.60
2022-12-31T17:31:30.116Z,9.20
2022-12-31T17:34:15.059Z,10.20
2022-12-31T17:36:57.300Z,9.50
2022-12-31T17:39:25.134Z,10.17
2022-12-31T17:41:55.437Z,12.60
2022-12-31T17:44:26.839Z,12.33
2022-12-31T17:46:54.591Z,12.57
2022-12-31T17:49:29.794Z,12.90
2022-12-31T17:51:56.695Z,13.57
2022-12-31T17:54:23.505Z,14.10
2022-12-31T17:56:51.697Z,13.70
2022-12-31T17:59:29.644Z,15.60
2022-12-31T18:02:03.161Z,14.00
2022-12-31T18:04:30.072Z,14.87
2022-12-31T18:06:56.869Z,15.30
2022-12-31T18:09:23.759Z,17.57
2022-12-31T18:11:50.640Z,15.53
2022-12-31T18:14:17.444Z,17.83
2022-12-31T18:16:44.539Z,19.90
2022-12-31T18:19:37.898Z,20.03
2022-12-31T18:22:02.565Z,18.80
2022-12-31T18:24:29.366Z,17.30
2022-12-31T18:26:56.174Z,15.80
2022-12-31T18:29:23.099Z,15.13
2022-12-31T18:31:50.851Z,15.33
2022-12-31T18:34:18.675Z,14.73
2022-12-31T18:36:46.212Z,13.57
2022-12-31T18:39:13.050Z,14.60
2022-12-31T18:41:45.913Z,13.20
2022-12-31T18:44:14.128Z,14.00
2022-12-31T18:46:41.077Z,14.00
2022-12-31T18:49:08.642Z,16.20
2022-12-31T18:51:36.002Z,16.03
2022-12-31T18:54:03.644Z,14.27
2022-12-31T18:56:31.444Z,12.73
2022-12-31T18:58:59.735Z,10.57
2022-12-31T19:01:30.314Z,10.70
2022-12-31T19:04:00.255Z,9.30
2022-12-31T19:06:27.864Z,10.97
2022-12-31T19:08:55.141Z,11.03
2022-12-31T19:11:22.724Z,12.40
2022-12-31T19:13:50.294Z,21.77
2022-12-31T19:16:18.013Z,25.73
2022-12-31T19:18:47.362Z,28.53
2022-12-31T19:21:17.113Z,28.07
2022-12-31T19:23:44.536Z,30.50
2022-12-31T19:26:20.809Z,30.90
2022-12-31T19:28:48.625Z,33.40
2022-12-31T19:31:16.127Z,32.67
2022-12-31T19:33:43.157Z,34.00
2022-12-31T19:36:15.801Z,18.20
2022-12-31T19:38:42.886Z,23.77
2022-12-31T19:41:16.471Z,23.53
2022-12-31T19:43:43.454Z,17.20
2022-12-31T19:46:14.898Z,14.90
2022-12-31T19:48:42.021Z,15.70
2022-12-31T19:51:12.002Z,17.30
2022-12-31T19:53:39.398Z,16.30
2022-12-31T19:56:06.452Z,16.30
2022-12-31T19:58:33.276Z,15.60
2022-12-31T20:01:03.365Z,17.63
2022-12-31T20:03:32.536Z,20.13
2022-12-31T20:06:09.419Z,20.97
2022-12-31T20:08:38.548Z,19.93
2022-12-31T20:11:12.670Z,21.70
2022-12-31T20:13:40.284Z,23.60
2022-12-31T20:16:09.326Z,25.77
2022-12-31T20:18:40.501Z,27.60
2022-12-31T20:21:17.890Z,29.73
2022-12-31T20:23:45.335Z,32.27
2022-12-31T20:26:12.419Z,31.83
2022-12-31T20:28:39.803Z,32.20
2022-12-31T20:31:11.440Z,31.93
2022-12-31T20:33:38.774Z,30.10
2022-12-31T20:36:07.425Z,30.80
2022-12-31T20:38:34.593Z,28.93
2022-12-31T20:41:09.727Z,29.90
2022-12-31T20:43:37.121Z,26.97
2022-12-31T20:46:14.442Z,28.57
2022-12-31T20:48:42.149Z,27.93
2022-12-31T20:51:09.017Z,25.83
2022-12-31T20:53:35.832Z,27.57
2022-12-31T20:56:06.478Z,29.63
2022-12-31T20:58:33.740Z,31.20
2022-12-31T21:01:00.660Z,30.80
2022-12-31T21:04:03.517Z,29.50
2022-12-31T21:06:14.940Z,27.57
2022-12-31T21:08:42.094Z,31.27
2022-12-31T21:11:29.352Z,29.93
2022-12-31T21:13:58.012Z,33.37
2022-12-31T21:16:25.777Z,29.70
2022-12-31T21:18:52.795Z,29.70
2022-12-31T21:21:20.079Z,29.00
2022-12-31T21:23:47.243Z,28.63
2022-12-31T21:26:14.044Z,30.63
2022-12-31T21:28:41.033Z,29.10
2022-12-31T21:31:09.128Z,29.20
2022-12-31T21:33:35.997Z,29.90
2022-12-31T21:36:04.926Z,30.07
2022-12-31T21:38:32.028Z,29.17
2022-12-31T21:41:03.457Z,29.23
2022-12-31T21:43:30.491Z,29.17
2022-12-31T21:46:04.673Z,27.80
2022-12-31T21:48:31.640Z,27.87
2022-12-31T21:51:09.200Z,28.53
2022-12-31T21:53:37.493Z,24.90
2022-12-31T21:56:16.053Z,23.60
2022-12-31T21:59:08.218Z,24.17
2022-12-31T22:01:53.442Z,22.15
2022-12-31T22:04:59.851Z,22.50
2022-12-31T22:07:07.170Z,21.07
2022-12-31T22:09:34.324Z,20.53
2022-12-31T22:12:01.162Z,19.47
2022-12-31T22:14:27.965Z,17.80
2022-12-31T22:16:54.733Z,18.57
2022-12-31T22:19:21.538Z,16.77
2022-12-31T22:21:48.338Z,16.10
2022-12-31T22:24:15.166Z,16.80
2022-12-31T22:26:46.559Z,16.23
2022-12-31T22:29:13.746Z,16.50
2022-12-31T22:31:40.791Z,16.55
2022-12-31T22:34:07.697Z,16.77
2022-12-31T22:36:34.472Z,16.80
2022-12-31T22:39:01.269Z,17.50
2022-12-31T22:41:28.796Z,16.70
2022-12-31T22:44:03.460Z,19.37
2022-12-31T22:46:30.789Z,20.40
2022-12-31T22:48:59.198Z,18.50
2022-12-31T22:51:54.985Z,19.67
2022-12-31T22:54:14.670Z,19.30
2022-12-31T22:56:41.801Z,19.48
2022-12-31T22:59:09.336Z,18.93
2022-12-31T23:01:36.192Z,20.20
2022-12-31T23:04:03.588Z,27.20
2022-12-31T23:06:30.428Z,47.97
2022-12-31T23:09:15.744Z,65.03
2022-12-31T23:11:45.512Z,81.07
2022-12-31T23:14:35.901Z,88.20
2022-12-31T23:17:29.641Z,92.37
2022-12-31T23:20:18.075Z,97.20
2022-12-31T23:23:03.740Z,120.90
2022-12-31T23:25:50.055Z,151.87
2022-12-31T23:28:22.924Z,141.83
2022-12-31T23:30:53.722Z,150.50
2022-12-31T23:33:26.061Z,151.90
2022-12-31T23:36:06.541Z,142.40
2022-12-31T23:38:33.356Z,132.07
2022-12-31T23:41:00.193Z,130.93
2022-12-31T23:43:27.012Z,126.10
2022-12-31T23:45:54.045Z,125.60
2022-12-31T23:48:20.946Z,116.73
2022-12-31T23:50:53.441Z,110.77
2022-12-31T23:53:21.402Z,110.43
2022-12-31T23:55:48.278Z,93.97
2022-12-31T23:58:15.675Z,90.80
